Time;durP1;ratioP1;P1;durP2;ratioP2;P2;SDS_P1;SDS_P2;PMS_P1;PMS_P2;Temp;Humidity;BMP_temperature;BMP_pressure;BME280_temperature;BME280_humidity;BME280_pressure;Samples;Min_cycle;Max_cycle;Signal;HPM_P1;HPM_P2
2022/04/10 00:01:42;;;;;;;7.38;4.07;;;3.60;82.90;;;;;;5096084;28;20034;-10
2022/04/10 00:04:08;;;;;;;7.25;4.53;;;3.60;82.80;;;;;;5096977;28;20024;-10
2022/04/10 00:06:34;;;;;;;6.93;4.25;;;3.60;82.90;;;;;;5097056;28;20028;-10
2022/04/10 00:09:00;;;;;;;8.48;4.70;;;3.60;82.90;;;;;;5096596;28;20412;-11
2022/04/10 00:11:26;;;;;;;7.13;4.15;;;3.60;83.00;;;;;;5097027;28;20085;-10
2022/04/10 00:13:52;;;;;;;7.45;4.13;;;3.60;82.80;;;;;;5097048;28;20024;-10
2022/04/10 00:16:18;;;;;;;7.82;4.22;;;3.50;82.70;;;;;;5096649;28;20391;-10
2022/04/10 00:18:44;;;;;;;8.57;4.22;;;3.50;82.90;;;;;;5096873;28;20020;-11
2022/04/10 00:21:11;;;;;;;7.32;4.45;;;3.50;82.80;;;;;;5096857;28;20047;-9
2022/04/10 00:23:37;;;;;;;6.78;3.92;;;3.40;82.90;;;;;;5096621;28;20028;-10
2022/04/10 00:26:03;;;;;;;7.47;4.60;;;3.40;82.90;;;;;;5096567;28;20028;-10
2022/04/10 00:28:29;;;;;;;7.18;4.32;;;3.40;83.20;;;;;;5096355;28;20039;-11
2022/04/10 00:30:55;;;;;;;7.72;4.18;;;3.40;83.20;;;;;;5096598;28;20020;-9
2022/04/10 00:33:20;;;;;;;7.82;4.25;;;3.40;83.00;;;;;;5096471;28;20055;-10
2022/04/10 00:35:46;;;;;;;8.98;4.78;;;3.40;83.30;;;;;;5096684;28;20031;-9
2022/04/10 00:38:12;;;;;;;7.68;4.20;;;3.40;83.40;;;;;;5096963;28;20070;-10
2022/04/10 00:40:38;;;;;;;7.47;4.47;;;3.40;83.30;;;;;;5096398;28;20020;-11
2022/04/10 00:43:04;;;;;;;6.03;4.00;;;3.40;83.30;;;;;;5094911;28;20081;-10
2022/04/10 00:45:31;;;;;;;8.07;4.50;;;3.40;83.10;;;;;;5096365;28;20396;-10
2022/04/10 00:47:57;;;;;;;6.45;4.10;;;3.30;83.00;;;;;;5096161;28;20082;-11
2022/04/10 00:50:23;;;;;;;6.00;3.97;;;3.30;82.90;;;;;;5095857;28;20028;-11
2022/04/10 00:52:50;;;;;;;7.40;4.10;;;3.20;83.10;;;;;;5094810;28;20504;-11
2022/04/10 00:55:17;;;;;;;6.95;4.22;;;3.10;83.10;;;;;;5095937;28;20059;-10
2022/04/10 00:57:45;;;;;;;6.80;4.00;;;3.10;83.10;;;;;;5096258;28;20085;-9
2022/04/10 01:00:13;;;;;;;7.57;4.28;;;3.10;83.20;;;;;;5096264;28;20035;-10
2022/04/10 01:02:39;;;;;;;6.20;3.80;;;3.00;83.20;;;;;;5095762;28;20031;-10
2022/04/10 01:05:07;;;;;;;5.05;3.38;;;2.90;83.30;;;;;;5096044;28;20031;-10
2022/04/10 01:07:33;;;;;;;7.30;4.10;;;2.90;83.30;;;;;;5095765;28;20024;-10
2022/04/10 01:09:59;;;;;;;6.72;4.00;;;2.90;83.40;;;;;;5094338;28;20039;-11
2022/04/10 01:12:25;;;;;;;7.28;4.25;;;2.90;83.60;;;;;;5095832;28;20049;-10
2022/04/10 01:14:52;;;;;;;7.30;3.95;;;2.80;83.90;;;;;;5095690;28;20024;-10
2022/04/10 01:17:19;;;;;;;6.85;4.00;;;2.80;83.70;;;;;;5096218;28;20028;-11
2022/04/10 01:19:45;;;;;;;5.78;3.40;;;2.80;83.60;;;;;;5096415;28;20028;-10
2022/04/10 01:22:25;;;;;;;8.85;4.13;;;2.80;83.60;;;;;;5095427;28;20066;-10
2022/04/10 01:24:51;;;;;;;6.70;4.32;;;2.70;83.60;;;;;;5095251;28;20032;-10
2022/04/10 01:27:17;;;;;;;7.25;3.85;;;2.60;83.60;;;;;;5095774;28;20032;-10
2022/04/10 01:29:43;;;;;;;8.27;4.05;;;2.60;83.60;;;;;;5094131;28;20036;-10
2022/04/10 01:32:09;;;;;;;7.90;4.28;;;2.50;83.70;;;;;;5095683;28;20103;-10
2022/04/10 01:34:38;;;;;;;6.10;3.53;;;2.50;83.80;;;;;;5095059;28;20464;-10
2022/04/10 01:37:05;;;;;;;12.25;5.55;;;2.40;83.90;;;;;;5095253;28;20030;-10
2022/04/10 01:39:31;;;;;;;5.85;3.58;;;2.40;83.90;;;;;;5095436;28;20043;-10
2022/04/10 01:41:57;;;;;;;5.65;3.53;;;2.30;83.80;;;;;;5094959;28;20031;-11
2022/04/10 01:44:23;;;;;;;6.53;3.85;;;2.20;83.80;;;;;;5094875;28;20430;-10
2022/04/10 01:46:49;;;;;;;8.10;4.47;;;2.10;83.80;;;;;;5094973;28;20016;-10
2022/04/10 01:49:15;;;;;;;7.03;4.65;;;2.00;83.80;;;;;;5094980;28;20028;-11
2022/04/10 01:51:41;;;;;;;8.00;4.70;;;1.90;84.00;;;;;;5095243;28;20027;-10
2022/04/10 01:54:07;;;;;;;9.43;5.32;;;1.80;84.20;;;;;;5093597;28;20403;-9
2022/04/10 01:56:33;;;;;;;7.43;4.55;;;1.80;84.30;;;;;;5094888;28;20419;-10
2022/04/10 01:58:59;;;;;;;9.98;4.45;;;1.70;84.50;;;;;;5093598;28;20476;-11
2022/04/10 02:01:25;;;;;;;7.57;4.50;;;1.60;84.70;;;;;;5094871;28;20032;-10
2022/04/10 02:03:52;;;;;;;7.47;3.78;;;1.60;84.70;;;;;;5094675;28;20032;-11
2022/04/10 02:06:18;;;;;;;9.23;4.10;;;1.60;84.80;;;;;;5093803;28;20024;-10
2022/04/10 02:08:45;;;;;;;8.45;4.70;;;1.50;84.80;;;;;;5094789;28;20093;-10
2022/04/10 02:11:19;;;;;;;10.23;5.50;;;1.50;84.90;;;;;;5094744;28;20132;-10
2022/04/10 02:13:46;;;;;;;7.57;4.57;;;1.40;84.90;;;;;;5094920;28;20027;-10
2022/04/10 02:16:21;;;;;;;7.53;4.53;;;1.30;84.90;;;;;;5095336;28;20413;-10
2022/04/10 02:18:47;;;;;;;6.43;3.88;;;1.30;85.00;;;;;;5094441;28;20066;-10
2022/04/10 02:21:14;;;;;;;7.18;3.67;;;1.20;85.00;;;;;;5094595;28;20036;-9
2022/04/10 02:23:40;;;;;;;7.18;4.50;;;1.30;85.10;;;;;;5094298;28;20502;-10
2022/04/10 02:26:10;;;;;;;8.15;4.70;;;1.20;85.20;;;;;;5094201;28;20036;-9
2022/04/10 02:28:37;;;;;;;6.13;3.70;;;1.20;85.20;;;;;;5094638;28;20020;-11
2022/04/10 02:31:03;;;;;;;7.03;4.00;;;1.10;85.20;;;;;;5094126;28;20024;-11
2022/04/10 02:33:29;;;;;;;8.48;4.63;;;1.10;85.10;;;;;;5094104;28;20396;-10
2022/04/10 02:35:55;;;;;;;9.55;4.13;;;1.10;85.30;;;;;;5094403;28;20490;-10
2022/04/10 02:38:21;;;;;;;9.00;4.80;;;1.00;85.30;;;;;;5094467;28;20476;-9
2022/04/10 02:40:47;;;;;;;7.22;4.20;;;1.00;85.30;;;;;;5093956;28;20056;-10
2022/04/10 02:43:14;;;;;;;8.77;5.22;;;1.00;85.30;;;;;;5094430;28;20046;-11
2022/04/10 02:45:44;;;;;;;11.25;5.97;;;0.90;85.40;;;;;;5094180;28;20032;-11
2022/04/10 02:48:10;;;;;;;10.65;5.50;;;0.90;85.40;;;;;;5094202;28;20024;-10
2022/04/10 02:50:37;;;;;;;7.28;4.50;;;0.90;85.40;;;;;;5093631;28;20032;-10
2022/04/10 02:53:04;;;;;;;10.15;5.35;;;0.90;85.40;;;;;;5094095;28;20020;-11
2022/04/10 02:55:29;;;;;;;10.65;6.43;;;0.80;85.70;;;;;;5093661;28;20016;-11
2022/04/10 02:57:55;;;;;;;7.07;3.75;;;0.80;85.60;;;;;;5094002;28;20099;-11
2022/04/10 03:00:21;;;;;;;5.85;3.97;;;0.80;85.60;;;;;;5093430;28;20395;-11
2022/04/10 03:02:47;;;;;;;8.23;4.82;;;0.70;85.40;;;;;;5093570;28;20043;-12
2022/04/10 03:05:17;;;;;;;7.13;4.43;;;0.70;85.50;;;;;;5094119;28;20479;-10
2022/04/10 03:07:43;;;;;;;7.43;4.35;;;0.70;85.50;;;;;;5093556;28;20042;-10
2022/04/10 03:10:10;;;;;;;9.48;4.90;;;0.60;85.50;;;;;;5093313;28;20044;-10
2022/04/10 03:12:36;;;;;;;9.98;5.25;;;0.70;85.70;;;;;;5093453;28;20111;-11
2022/04/10 03:15:02;;;;;;;9.90;5.55;;;0.70;85.70;;;;;;5093689;28;20103;-11
2022/04/10 03:17:28;;;;;;;6.88;4.43;;;0.70;85.70;;;;;;5093742;28;20027;-11
2022/04/10 03:19:54;;;;;;;5.22;3.45;;;0.70;85.70;;;;;;5093381;28;20020;-10
2022/04/10 03:22:19;;;;;;;7.80;5.40;;;0.70;85.60;;;;;;5093113;28;20034;-11
2022/04/10 03:24:45;;;;;;;12.75;5.15;;;0.70;85.80;;;;;;5093312;28;20034;-10
2022/04/10 03:27:11;;;;;;;8.50;4.95;;;0.70;85.60;;;;;;5093581;28;20154;-11
2022/04/10 03:29:37;;;;;;;9.32;6.28;;;0.60;85.60;;;;;;5093292;28;20369;-10
2022/04/10 03:32:03;;;;;;;8.52;4.90;;;0.70;85.60;;;;;;5093238;28;20030;-10
2022/04/10 03:34:29;;;;;;;7.20;4.22;;;0.70;85.80;;;;;;5093323;28;20020;-11
2022/04/10 03:36:55;;;;;;;7.25;4.53;;;0.70;85.60;;;;;;5091964;28;20035;-10
2022/04/10 03:39:21;;;;;;;6.80;4.30;;;0.60;85.50;;;;;;5093136;28;20052;-10
2022/04/10 03:41:47;;;;;;;10.20;5.88;;;0.60;85.40;;;;;;5093036;28;20077;-11
2022/04/10 03:44:13;;;;;;;13.65;5.82;;;0.60;85.60;;;;;;5092999;28;20036;-10
2022/04/10 03:46:39;;;;;;;13.70;7.00;;;0.50;85.80;;;;;;5074979;28;20107;-11
2022/04/10 03:49:05;;;;;;;10.50;5.97;;;0.50;85.70;;;;;;5093727;28;20024;-11
2022/04/10 03:51:31;;;;;;;12.15;6.97;;;0.50;85.80;;;;;;5093035;28;20024;-10
2022/04/10 03:53:57;;;;;;;9.25;5.60;;;0.50;85.90;;;;;;5093115;28;20031;-10
2022/04/10 03:56:23;;;;;;;8.30;4.82;;;0.50;86.20;;;;;;5092664;28;20024;-11
2022/04/10 03:58:49;;;;;;;11.10;5.40;;;0.50;86.10;;;;;;5092965;28;20028;-11
2022/04/10 04:01:14;;;;;;;9.63;5.05;;;0.60;86.10;;;;;;5092870;28;20028;-10
2022/04/10 04:03:40;;;;;;;9.60;5.13;;;0.60;86.10;;;;;;5092948;28;20039;-11
2022/04/10 04:06:06;;;;;;;13.10;5.45;;;0.60;86.10;;;;;;5093195;28;20039;-10
2022/04/10 04:08:32;;;;;;;12.02;5.43;;;0.70;86.10;;;;;;5092228;28;20060;-10
2022/04/10 04:10:58;;;;;;;8.75;4.85;;;0.80;86.30;;;;;;5092774;28;20024;-11
2022/04/10 04:13:25;;;;;;;9.02;5.22;;;0.90;86.20;;;;;;5091578;28;20025;-10
2022/04/10 04:15:51;;;;;;;9.23;5.38;;;0.90;86.20;;;;;;5092778;28;20476;-11
2022/04/10 04:18:17;;;;;;;11.43;5.38;;;1.00;86.20;;;;;;5092891;28;20039;-10
2022/04/10 04:20:43;;;;;;;14.23;5.70;;;1.10;86.00;;;;;;5093396;28;20035;-11
2022/04/10 04:23:09;;;;;;;9.48;4.97;;;1.10;86.10;;;;;;5093014;28;20078;-11
2022/04/10 04:25:35;;;;;;;11.27;6.20;;;1.10;86.00;;;;;;5092661;28;20032;-11
2022/04/10 04:28:01;;;;;;;11.73;5.22;;;1.10;86.10;;;;;;5091511;28;20494;-11
2022/04/10 04:30:27;;;;;;;12.63;6.07;;;1.20;86.20;;;;;;5095145;28;20093;-11
2022/04/10 04:32:53;;;;;;;11.82;6.07;;;1.30;86.30;;;;;;5095607;28;20028;-11
2022/04/10 04:35:19;;;;;;;9.90;5.97;;;1.40;86.40;;;;;;5096760;28;20053;-11
2022/04/10 04:37:45;;;;;;;14.45;5.20;;;1.40;86.30;;;;;;5096389;28;20036;-11
2022/04/10 04:40:11;;;;;;;11.02;5.40;;;1.50;86.00;;;;;;5096237;28;20089;-10
2022/04/10 04:42:37;;;;;;;12.10;5.40;;;1.50;86.00;;;;;;5096065;28;20099;-9
2022/04/10 04:45:04;;;;;;;10.45;5.68;;;1.60;85.80;;;;;;5096293;28;20111;-10
2022/04/10 04:47:30;;;;;;;10.00;4.45;;;1.60;85.80;;;;;;5094947;28;20073;-11
2022/04/10 04:49:56;;;;;;;7.28;4.30;;;1.60;85.70;;;;;;5096745;28;20023;-11
2022/04/10 04:52:22;;;;;;;11.88;5.53;;;1.50;85.70;;;;;;5096258;28;20024;-11
2022/04/10 04:54:47;;;;;;;8.40;4.78;;;1.50;85.80;;;;;;5096551;28;20084;-10
2022/04/10 04:57:13;;;;;;;7.43;4.57;;;1.50;86.10;;;;;;5095999;28;20036;-10
2022/04/10 04:59:39;;;;;;;8.00;5.07;;;1.50;86.30;;;;;;5096348;28;20100;-11
2022/04/10 05:02:05;;;;;;;9.95;5.88;;;1.60;86.90;;;;;;5095874;28;20036;-11
2022/04/10 05:04:31;;;;;;;11.82;6.03;;;1.70;87.40;;;;;;5095745;28;20036;-12
2022/04/10 05:06:57;;;;;;;9.35;5.20;;;1.90;87.70;;;;;;5095863;28;20365;-10
2022/04/10 05:09:23;;;;;;;13.65;6.18;;;1.90;87.80;;;;;;5095606;28;20067;-11
2022/04/10 05:11:49;;;;;;;10.80;5.55;;;2.10;88.00;;;;;;5095984;28;20020;-11
2022/04/10 05:14:15;;;;;;;8.23;5.05;;;2.30;87.90;;;;;;5095831;28;20089;-11
2022/04/10 05:16:40;;;;;;;9.60;5.38;;;2.50;87.90;;;;;;5095585;28;20047;-11
2022/04/10 05:19:06;;;;;;;9.45;5.10;;;2.90;87.90;;;;;;5095620;28;20111;-11
2022/04/10 05:21:32;;;;;;;10.18;5.72;;;3.10;87.30;;;;;;5095773;28;20107;-11
2022/04/10 05:23:59;;;;;;;11.07;5.65;;;3.50;86.20;;;;;;5096101;28;20028;-11
2022/04/10 05:26:25;;;;;;;10.77;5.47;;;3.80;85.40;;;;;;5095498;28;20441;-12
2022/04/10 05:28:50;;;;;;;8.63;5.25;;;4.20;84.50;;;;;;5095394;28;20503;-12
2022/04/10 05:31:16;;;;;;;9.30;5.47;;;4.50;83.60;;;;;;5095693;28;20035;-11
2022/04/10 05:33:42;;;;;;;8.88;5.05;;;4.80;82.50;;;;;;5095878;28;20024;-11
2022/04/10 05:36:08;;;;;;;9.30;5.22;;;5.20;81.80;;;;;;5095388;28;20040;-11
2022/04/10 05:38:34;;;;;;;11.95;6.10;;;5.50;81.40;;;;;;5095061;28;20387;-12
2022/04/10 05:41:00;;;;;;;8.20;5.05;;;5.90;81.10;;;;;;5093962;28;20023;-11
2022/04/10 05:43:25;;;;;;;10.57;5.63;;;6.20;80.40;;;;;;5095369;28;20048;-11
2022/04/10 05:45:51;;;;;;;10.77;5.03;;;6.40;79.80;;;;;;5095921;28;20384;-11
2022/04/10 05:48:18;;;;;;;8.63;5.20;;;6.60;79.20;;;;;;5095447;28;20116;-10
2022/04/10 05:50:44;;;;;;;10.23;5.20;;;6.70;78.70;;;;;;5094952;28;20077;-11
2022/04/10 05:53:10;;;;;;;9.23;5.72;;;6.80;78.50;;;;;;5094977;28;20070;-10
2022/04/10 05:55:36;;;;;;;9.73;6.38;;;6.70;77.80;;;;;;5094933;28;20036;-10
2022/04/10 05:58:03;;;;;;;11.15;6.30;;;6.70;78.30;;;;;;5094822;28;20507;-10
2022/04/10 06:00:29;;;;;;;10.60;5.82;;;6.60;78.00;;;;;;5094901;28;20036;-11
2022/04/10 06:02:55;;;;;;;9.98;6.22;;;6.60;78.30;;;;;;5095506;28;20020;-11
2022/04/10 06:05:22;;;;;;;10.55;6.03;;;6.60;78.50;;;;;;5094627;28;20443;-10
2022/04/10 06:07:48;;;;;;;9.85;6.35;;;6.60;78.20;;;;;;5094964;28;20096;-11
2022/04/10 06:10:15;;;;;;;12.13;6.63;;;6.60;78.60;;;;;;5094307;28;20441;-11
2022/04/10 06:12:41;;;;;;;11.40;7.00;;;6.70;78.50;;;;;;5094545;28;20495;-11
2022/04/10 06:15:07;;;;;;;10.20;5.97;;;6.70;79.80;;;;;;5094925;28;20020;-11
2022/04/10 06:17:33;;;;;;;7.80;5.20;;;6.90;79.80;;;;;;5094792;28;20107;-11
2022/04/10 06:19:59;;;;;;;8.80;6.15;;;7.20;80.00;;;;;;5094657;28;20440;-11
2022/04/10 06:22:26;;;;;;;11.88;6.13;;;7.50;79.90;;;;;;5094064;28;20103;-10
2022/04/10 06:24:53;;;;;;;11.23;6.47;;;7.90;79.50;;;;;;5094287;28;20115;-10
2022/04/10 06:27:19;;;;;;;16.90;8.45;;;8.20;77.20;;;;;;5094469;28;20054;-11
2022/04/10 06:29:46;;;;;;;10.05;5.93;;;8.40;77.30;;;;;;5094375;28;20073;-11
2022/04/10 06:32:12;;;;;;;11.63;6.90;;;8.70;77.00;;;;;;5094180;28;20491;-9
2022/04/10 06:34:38;;;;;;;12.73;6.82;;;9.10;74.30;;;;;;5094399;28;20115;-11
2022/04/10 06:37:04;;;;;;;8.02;5.65;;;9.60;71.90;;;;;;5094088;28;20059;-11
2022/04/10 06:39:30;;;;;;;8.30;5.50;;;9.90;71.60;;;;;;5092832;28;20107;-11
2022/04/10 06:41:57;;;;;;;10.50;5.85;;;10.20;71.20;;;;;;5092614;28;20055;-10
2022/04/10 06:44:23;;;;;;;11.60;6.72;;;10.60;70.40;;;;;;5094056;28;20118;-11
2022/04/10 06:46:49;;;;;;;8.75;5.70;;;10.80;69.00;;;;;;5094249;28;20082;-11
2022/04/10 06:49:15;;;;;;;7.78;4.80;;;10.80;67.80;;;;;;5093922;28;20028;-11
2022/04/10 06:51:41;;;;;;;9.15;6.03;;;10.90;68.40;;;;;;5093640;28;20479;-12
2022/04/10 06:54:07;;;;;;;8.77;5.95;;;11.10;67.50;;;;;;5093880;28;20482;-11
2022/04/10 06:56:33;;;;;;;10.40;6.13;;;11.30;66.50;;;;;;5093457;28;20035;-10
2022/04/10 06:58:59;;;;;;;8.68;6.10;;;11.50;66.70;;;;;;5093708;28;20032;-11
2022/04/10 07:01:25;;;;;;;8.18;5.65;;;11.70;65.90;;;;;;5092342;28;20026;-12
2022/04/10 07:03:51;;;;;;;9.13;5.70;;;11.90;64.90;;;;;;5093959;28;20077;-11
2022/04/10 07:06:17;;;;;;;10.68;6.32;;;12.00;65.40;;;;;;5093684;28;20020;-11
2022/04/10 07:08:43;;;;;;;10.05;5.97;;;12.20;62.40;;;;;;5092107;28;20050;-10
2022/04/10 07:11:09;;;;;;;9.00;6.00;;;12.40;60.60;;;;;;5093859;28;20052;-10
2022/04/10 07:13:35;;;;;;;10.55;6.32;;;12.50;61.20;;;;;;5093474;28;20020;-10
2022/04/10 07:16:01;;;;;;;9.05;5.93;;;12.40;61.70;;;;;;5093563;28;20028;-11
2022/04/10 07:18:27;;;;;;;10.88;6.68;;;12.50;60.90;;;;;;5093517;28;20031;-10
2022/04/10 07:20:53;;;;;;;8.77;5.55;;;12.50;60.40;;;;;;5093682;28;20522;-10
2022/04/10 07:23:43;;;;;;;8.50;5.75;;;12.30;59.50;;;;;;5094126;28;20376;-9
2022/04/10 07:26:15;;;;;;;9.80;5.57;;;12.10;60.00;;;;;;5093815;28;20030;-10
2022/04/10 07:28:41;;;;;;;7.70;5.53;;;12.00;60.50;;;;;;5093489;28;20028;-9
2022/04/10 07:31:09;;;;;;;8.02;5.95;;;12.20;61.30;;;;;;5093819;28;20031;-10
2022/04/10 07:33:36;;;;;;;9.38;5.50;;;12.50;61.10;;;;;;5093240;28;20039;-10
2022/04/10 07:36:03;;;;;;;9.90;5.85;;;12.70;60.40;;;;;;5093497;28;20020;-10
2022/04/10 07:38:29;;;;;;;10.85;5.82;;;12.90;59.70;;;;;;5093222;28;20063;-10
2022/04/10 07:40:55;;;;;;;9.48;5.85;;;13.10;58.50;;;;;;5093560;28;20105;-9
2022/04/10 07:43:21;;;;;;;9.40;6.22;;;13.20;58.10;;;;;;5093353;28;20089;-10
2022/04/10 07:48:31;;;;;;;;;;;13.50;58.40;;;;;;5093924;28;20062;-9
2022/04/10 07:50:57;;;;;;;8.07;5.22;;;13.60;59.20;;;;;;5093339;28;19939;-9
2022/04/10 07:53:24;;;;;;;7.22;4.90;;;13.90;58.50;;;;;;5093103;28;20023;-10
2022/04/10 07:55:50;;;;;;;8.90;5.50;;;14.00;58.50;;;;;;5093047;28;20027;-10
2022/04/10 07:58:16;;;;;;;12.02;5.45;;;14.20;57.40;;;;;;5093084;28;20081;-10
2022/04/10 08:00:42;;;;;;;8.18;5.45;;;14.30;57.90;;;;;;5092966;28;20503;-10
2022/04/10 08:03:08;;;;;;;8.60;5.10;;;14.40;57.80;;;;;;5093209;28;20024;-10
2022/04/10 08:05:34;;;;;;;7.40;5.07;;;14.40;57.70;;;;;;5095148;28;20027;-10
2022/04/10 08:08:00;;;;;;;8.18;5.30;;;14.60;57.50;;;;;;5096948;28;20032;-11
2022/04/10 08:10:26;;;;;;;6.70;4.20;;;14.70;57.20;;;;;;5096611;28;20036;-10
2022/04/10 08:12:52;;;;;;;6.20;4.22;;;14.70;55.80;;;;;;5097186;28;20145;-9
2022/04/10 08:15:19;;;;;;;6.28;4.07;;;14.80;56.60;;;;;;5096798;28;20032;-10
2022/04/10 08:17:44;;;;;;;7.20;4.40;;;15.00;55.60;;;;;;5097097;28;20020;-9
2022/04/10 08:20:12;;;;;;;7.45;4.15;;;15.10;54.50;;;;;;5096771;28;20430;-10
2022/04/10 08:22:39;;;;;;;5.95;3.88;;;15.10;54.50;;;;;;5096706;28;20020;-10
2022/04/10 08:25:12;;;;;;;4.95;3.60;;;15.20;53.80;;;;;;5096985;28;20500;-10
2022/04/10 08:27:40;;;;;;;5.93;4.15;;;15.40;53.70;;;;;;5096828;28;20028;-11
2022/04/10 08:30:08;;;;;;;8.63;4.10;;;15.60;52.90;;;;;;5096859;28;20107;-10
2022/04/10 08:32:38;;;;;;;7.13;3.97;;;15.50;53.20;;;;;;5096598;28;20020;-11
2022/04/10 08:35:05;;;;;;;6.25;3.90;;;15.30;53.10;;;;;;5096894;28;20450;-10
2022/04/10 08:37:31;;;;;;;6.60;4.40;;;15.30;53.20;;;;;;5096772;28;20048;-10
2022/04/10 08:39:57;;;;;;;5.38;4.00;;;15.40;53.10;;;;;;5097092;28;20494;-10
2022/04/10 08:42:23;;;;;;;5.68;4.18;;;15.60;53.00;;;;;;5095925;28;20048;-10
2022/04/10 08:44:49;;;;;;;7.53;4.35;;;15.80;50.90;;;;;;5096593;28;20043;-10
2022/04/10 08:47:21;;;;;;;7.97;4.35;;;16.00;49.50;;;;;;5097001;28;20024;-11
2022/04/10 08:49:49;;;;;;;6.85;3.97;;;16.10;50.30;;;;;;5096530;28;20026;-10
2022/04/10 08:52:20;;;;;;;5.88;4.07;;;16.40;46.80;;;;;;5096259;28;20028;-10
2022/04/10 08:54:47;;;;;;;5.45;3.85;;;16.70;46.80;;;;;;5096447;28;20028;-10
2022/04/10 08:57:14;;;;;;;5.82;3.83;;;17.00;43.60;;;;;;5095971;28;20036;-10
2022/04/10 08:59:41;;;;;;;5.85;3.58;;;17.30;43.10;;;;;;5096392;28;20361;-10
2022/04/10 09:02:07;;;;;;;3.60;2.92;;;17.40;44.10;;;;;;5096091;28;20357;-11
2022/04/10 09:04:33;;;;;;;2.70;2.40;;;17.70;42.30;;;;;;5095679;28;20036;-11
2022/04/10 09:07:04;;;;;;;2.60;1.73;;;17.90;36.50;;;;;;5096171;28;20034;-12
2022/04/10 09:09:31;;;;;;;4.97;2.47;;;18.10;31.70;;;;;;5095623;28;20522;-11
2022/04/10 09:11:58;;;;;;;2.42;1.70;;;18.30;33.20;;;;;;5095988;28;20039;-11
2022/04/10 09:14:27;;;;;;;2.22;1.70;;;18.40;35.00;;;;;;5095792;28;20059;-11
2022/04/10 09:17:13;;;;;;;3.95;2.13;;;18.50;31.80;;;;;;5095763;28;20472;-11
2022/04/10 09:19:43;;;;;;;2.13;1.33;;;18.70;31.60;;;;;;5095631;28;20430;-11
2022/04/10 09:22:29;;;;;;;4.40;2.40;;;18.70;27.80;;;;;;5095839;28;20047;-10
2022/04/10 09:25:07;;;;;;;2.63;1.80;;;18.80;29.50;;;;;;5095501;28;20032;-11
2022/04/10 09:27:37;;;;;;;1.77;1.67;;;18.70;30.80;;;;;;5095515;28;20020;-11
2022/04/10 09:30:08;;;;;;;3.40;1.67;;;18.80;27.00;;;;;;5095605;28;20024;-11
2022/04/10 09:32:41;;;;;;;2.22;1.83;;;18.80;26.80;;;;;;5095779;28;20035;-10
2022/04/10 09:35:08;;;;;;;2.40;1.55;;;18.80;29.00;;;;;;5095784;28;20021;-10
2022/04/10 09:37:56;;;;;;;1.77;1.52;;;18.80;30.00;;;;;;5095283;28;20032;-11
2022/04/10 09:40:29;;;;;;;3.35;1.75;;;18.80;28.60;;;;;;5095020;28;20548;-11
2022/04/10 09:43:10;;;;;;;2.10;1.50;;;18.90;28.30;;;;;;5095182;28;20032;-11
2022/04/10 09:45:40;;;;;;;3.20;2.20;;;18.90;28.70;;;;;;5095171;28;20033;-10
2022/04/10 09:48:20;;;;;;;3.13;1.88;;;19.10;30.10;;;;;;5095652;28;20473;-11
2022/04/10 09:50:52;;;;;;;3.35;1.58;;;19.20;27.90;;;;;;5095640;28;20073;-11
2022/04/10 09:53:19;;;;;;;3.28;2.03;;;19.30;27.40;;;;;;5095026;28;20165;-11
2022/04/10 09:55:51;;;;;;;5.60;2.22;;;19.30;27.60;;;;;;5095126;28;20111;-11
2022/04/10 09:58:19;;;;;;;3.03;1.60;;;19.40;27.30;;;;;;5094738;28;20095;-11
2022/04/10 10:00:47;;;;;;;1.92;1.60;;;19.40;26.50;;;;;;5095133;28;20028;-12
2022/04/10 10:03:14;;;;;;;2.60;2.00;;;19.60;26.20;;;;;;5094945;28;20096;-11
2022/04/10 10:05:40;;;;;;;3.13;1.95;;;19.70;27.20;;;;;;5094688;28;20035;-11
2022/04/10 10:08:08;;;;;;;3.25;2.00;;;19.80;28.40;;;;;;5094685;28;20030;-12
2022/04/10 10:10:36;;;;;;;1.60;1.50;;;19.90;27.30;;;;;;5094467;28;20567;-11
2022/04/10 10:13:07;;;;;;;5.20;2.88;;;20.00;26.90;;;;;;5095040;28;20027;-11
2022/04/10 10:15:35;;;;;;;3.95;2.50;;;20.10;27.80;;;;;;5094570;28;20035;-10
2022/04/10 10:18:04;;;;;;;3.63;2.50;;;20.20;26.80;;;;;;5094796;28;20073;-11
2022/04/10 10:20:30;;;;;;;5.05;2.63;;;20.20;27.70;;;;;;5094225;28;20060;-11
2022/04/10 10:23:07;;;;;;;3.42;2.20;;;20.30;27.10;;;;;;5094660;28;20020;-11
2022/04/10 10:26:01;;;;;;;4.40;2.75;;;20.50;27.10;;;;;;5094308;28;20065;-10
2022/04/10 10:28:48;;;;;;;2.10;1.90;;;20.70;28.30;;;;;;5093450;28;20032;-11
2022/04/10 10:31:32;;;;;;;2.38;1.73;;;20.90;25.90;;;;;;5094591;28;20035;-11
2022/04/10 10:34:06;;;;;;;3.95;2.10;;;20.90;25.40;;;;;;5094285;28;20107;-11
2022/04/10 10:36:33;;;;;;;1.83;1.73;;;21.00;26.20;;;;;;5092838;28;20052;-10
2022/04/10 10:39:00;;;;;;;2.17;1.83;;;21.00;25.80;;;;;;5094126;28;20024;-11
2022/04/10 10:41:26;;;;;;;2.70;1.67;;;21.00;24.60;;;;;;5093864;28;20390;-11
2022/04/10 10:43:54;;;;;;;3.40;1.90;;;21.20;25.60;;;;;;5094302;28;20032;-12
2022/04/10 10:46:32;;;;;;;3.28;2.00;;;21.40;25.50;;;;;;5093768;28;20067;-11
2022/04/10 10:49:17;;;;;;;2.42;1.55;;;21.40;24.10;;;;;;5094321;28;20031;-11
2022/04/10 10:51:48;;;;;;;2.63;1.70;;;21.40;24.40;;;;;;5093860;28;20036;-11
2022/04/10 10:54:36;;;;;;;5.05;1.85;;;21.30;24.80;;;;;;5093708;28;20032;-12
2022/04/10 10:57:25;;;;;;;2.75;1.77;;;21.30;23.90;;;;;;5093298;28;20133;-11
2022/04/10 11:00:12;;;;;;;4.72;1.70;;;21.40;25.30;;;;;;5094362;28;20012;-11
2022/04/10 11:02:39;;;;;;;3.35;1.95;;;21.50;25.20;;;;;;5079499;28;20036;-11
2022/04/10 11:05:07;;;;;;;4.57;2.65;;;21.80;25.20;;;;;;5093640;28;20511;-12
2022/04/10 11:07:39;;;;;;;4.30;2.03;;;21.90;25.40;;;;;;5093567;28;20032;-12
2022/04/10 11:10:09;;;;;;;1.90;1.40;;;22.10;25.20;;;;;;5093424;28;20059;-11
2022/04/10 11:12:54;;;;;;;1.42;1.27;;;22.40;23.90;;;;;;5093271;28;20016;-12
2022/04/10 11:15:23;;;;;;;2.17;1.50;;;22.40;21.50;;;;;;5093552;28;20551;-11
2022/04/10 11:17:52;;;;;;;2.22;1.48;;;22.40;22.80;;;;;;5093670;28;20467;-11
2022/04/10 11:20:20;;;;;;;1.80;1.20;;;22.40;22.80;;;;;;5093542;28;20055;-11
2022/04/10 11:22:52;;;;;;;1.30;1.20;;;22.50;22.40;;;;;;5093257;28;20027;-11
2022/04/10 11:25:28;;;;;;;2.75;1.40;;;22.60;23.20;;;;;;5093364;28;20499;-12
2022/04/10 11:27:59;;;;;;;5.57;2.40;;;22.70;22.90;;;;;;5093368;28;20059;-11
2022/04/10 11:30:31;;;;;;;1.38;1.27;;;22.60;23.70;;;;;;5093261;28;20052;-11
2022/04/10 11:32:57;;;;;;;2.28;1.20;;;22.70;21.30;;;;;;5093632;28;20028;-11
2022/04/10 11:35:27;;;;;;;1.85;1.20;;;22.80;21.90;;;;;;5093526;28;20433;-10
2022/04/10 11:37:56;;;;;;;1.40;0.85;;;22.90;22.40;;;;;;5093074;28;20016;-11
2022/04/10 11:40:25;;;;;;;2.53;1.42;;;22.90;22.40;;;;;;5092187;28;20035;-13
2022/04/10 11:42:54;;;;;;;2.03;1.08;;;22.90;21.80;;;;;;5093094;28;20488;-11
2022/04/10 11:45:22;;;;;;;1.30;1.20;;;23.00;22.30;;;;;;5093427;28;20024;-11
2022/04/10 11:47:49;;;;;;;1.63;1.30;;;23.30;21.90;;;;;;5093328;28;20028;-11
2022/04/10 11:50:17;;;;;;;2.13;1.33;;;23.50;21.60;;;;;;5092880;28;20039;-11
2022/04/10 11:52:57;;;;;;;1.63;1.52;;;23.80;22.10;;;;;;5093764;28;20039;-11
2022/04/10 11:55:36;;;;;;;2.17;1.55;;;24.20;21.60;;;;;;5093099;28;20097;-11
2022/04/10 11:58:34;;;;;;;1.85;1.40;;;24.40;20.50;;;;;;5093202;28;20529;-11
2022/04/10 12:01:04;;;;;;;3.63;1.40;;;24.60;20.80;;;;;;5092762;28;20400;-11
2022/04/10 12:03:35;;;;;;;1.88;1.42;;;24.50;20.80;;;;;;5092029;28;20084;-11
2022/04/10 12:06:03;;;;;;;1.45;1.35;;;24.40;20.90;;;;;;5093290;28;20024;-11
2022/04/10 12:08:29;;;;;;;3.10;1.70;;;24.40;22.10;;;;;;5090392;28;20496;-11
2022/04/10 12:10:57;;;;;;;2.40;1.45;;;24.50;21.70;;;;;;5093169;28;20060;-11
2022/04/10 12:13:34;;;;;;;3.55;1.60;;;24.40;21.40;;;;;;5092872;28;20063;-10
2022/04/10 12:16:08;;;;;;;2.55;1.60;;;24.40;22.50;;;;;;5091604;28;20515;-11
2022/04/10 12:18:45;;;;;;;2.75;1.60;;;24.40;22.80;;;;;;5093012;28;20027;-10
2022/04/10 12:21:11;;;;;;;2.38;1.95;;;24.40;22.00;;;;;;5093113;28;20032;-11
2022/04/10 12:23:37;;;;;;;3.05;1.95;;;24.50;22.60;;;;;;5092753;28;20129;-11
2022/04/10 12:26:03;;;;;;;3.67;2.20;;;24.50;21.80;;;;;;5092689;28;20024;-10
2022/04/10 12:28:30;;;;;;;7.55;4.05;;;24.40;22.30;;;;;;5092531;28;20044;-15
2022/04/10 12:31:01;;;;;;;3.90;2.53;;;24.30;23.20;;;;;;5092714;28;20476;-11
2022/04/10 12:33:31;;;;;;;2.65;2.10;;;24.40;22.60;;;;;;5093323;28;20376;-11
2022/04/10 12:35:57;;;;;;;2.28;1.73;;;24.40;22.30;;;;;;5093091;28;20016;-11
2022/04/10 12:38:28;;;;;;;2.20;1.90;;;24.50;22.50;;;;;;5091293;28;20024;-11
2022/04/10 12:41:06;;;;;;;2.58;1.98;;;24.80;22.10;;;;;;5092577;28;20497;-11
2022/04/10 12:43:32;;;;;;;2.78;2.30;;;24.90;22.50;;;;;;5092543;28;20024;-10
2022/04/10 12:46:14;;;;;;;5.20;2.50;;;25.00;22.80;;;;;;5092858;28;20039;-12
2022/04/10 12:48:40;;;;;;;3.20;2.38;;;25.00;22.40;;;;;;5093408;28;20036;-11
2022/04/10 12:51:11;;;;;;;4.18;2.28;;;24.90;22.20;;;;;;5094582;28;20117;-13
2022/04/10 12:53:38;;;;;;;3.42;2.30;;;24.90;21.90;;;;;;5096491;28;20016;-12
2022/04/10 12:56:21;;;;;;;3.53;2.40;;;24.90;22.80;;;;;;5096029;28;20036;-10
2022/04/10 12:58:51;;;;;;;3.67;2.80;;;24.90;22.80;;;;;;5096112;28;20496;-12